Terminal Aerodrome Forecast
Issued by NWS

Home | Current Version | Previous Version | Text Only | Print | Product List | Glossary On
Versions: 1 2 3 4 5 6 7 8 9 10 11 12 13 14 15 16 17 18 19
000
FTUS43 KEAX 270520
TAFMKC
TAF
KMKC 270520Z 2706/2806 14006KT P6SM FEW140
     FM271200 16010KT P6SM VCTS SCT050CB SCT150
     FM271800 17011KT P6SM SCT150
     FM280100 16007KT P6SM SCT050=

USA.gov is the U.S. government's official web portal to all federal, state and local government web resources and services.